createdAt,value
2019-02-02T00:01:16.548Z,0.20
2019-02-02T00:03:44.323Z,0.20
2019-02-02T00:06:11.858Z,0.10
2019-02-02T00:08:40.440Z,0.10
2019-02-02T00:11:08.008Z,0.10
2019-02-02T00:13:36.746Z,0.10
2019-02-02T00:16:05.003Z,0.10
2019-02-02T00:18:32.595Z,0.10
2019-02-02T00:21:00.247Z,0.10
2019-02-02T00:23:29.198Z,0.10
2019-02-02T00:25:58.706Z,0.00
2019-02-02T00:28:26.238Z,0.00
2019-02-02T00:30:53.762Z,0.00
2019-02-02T00:33:21.336Z,0.00
2019-02-02T00:35:48.908Z,-0.10
2019-02-02T00:38:16.471Z,0.00
2019-02-02T00:40:44.041Z,0.00
2019-02-02T00:43:11.564Z,0.00
2019-02-02T00:45:39.141Z,0.00
2019-02-02T00:48:06.807Z,0.00
2019-02-02T00:50:34.296Z,-0.10
2019-02-02T00:53:01.767Z,-0.10
2019-02-02T00:55:29.477Z,-0.10
2019-02-02T00:57:56.997Z,-0.10
2019-02-02T01:00:24.939Z,-0.10
2019-02-02T01:02:52.457Z,-0.10
2019-02-02T01:05:20.507Z,-0.20
2019-02-02T01:07:48.255Z,-0.10
2019-02-02T01:10:18.750Z,-0.10
2019-02-02T01:12:46.493Z,-0.10
2019-02-02T01:15:15.796Z,-0.20
2019-02-02T01:17:43.259Z,-0.20
2019-02-02T01:20:11.846Z,-0.20
2019-02-02T01:22:39.884Z,-0.20
2019-02-02T01:25:08.827Z,-0.20
2019-02-02T01:27:37.035Z,-0.20
2019-02-02T01:30:06.694Z,-0.20
2019-02-02T01:32:34.223Z,-0.20
2019-02-02T01:35:01.679Z,-0.20
2019-02-02T01:37:29.134Z,-0.20
2019-02-02T01:39:56.607Z,-0.20
2019-02-02T01:42:24.258Z,-0.20
2019-02-02T01:44:51.892Z,-0.20
2019-02-02T01:47:24.250Z,-0.20
2019-02-02T01:49:51.760Z,-0.20
2019-02-02T01:52:19.368Z,-0.20
2019-02-02T01:54:46.923Z,-0.30
2019-02-02T01:57:14.468Z,-0.30
2019-02-02T01:59:42.168Z,-0.30
2019-02-02T02:02:09.707Z,-0.30
2019-02-02T02:04:37.309Z,-0.30
2019-02-02T02:07:04.983Z,-0.30
2019-02-02T02:09:32.494Z,-0.30
2019-02-02T02:11:59.958Z,-0.30
2019-02-02T02:14:27.489Z,-0.30
2019-02-02T02:16:54.887Z,-0.30
2019-02-02T02:19:22.535Z,-0.30
2019-02-02T02:21:50.258Z,-0.30
2019-02-02T02:24:17.810Z,-0.30
2019-02-02T02:26:45.435Z,-0.30
2019-02-02T02:29:12.932Z,-0.30
2019-02-02T02:31:40.558Z,-0.30
2019-02-02T02:34:08.213Z,-0.30
2019-02-02T02:36:35.771Z,-0.30
2019-02-02T02:39:05.767Z,-0.30
2019-02-02T02:41:34.217Z,-0.30
2019-02-02T02:44:01.812Z,-0.30
2019-02-02T02:46:29.451Z,-0.30
2019-02-02T02:48:56.933Z,-0.40
2019-02-02T02:51:24.450Z,-0.40
2019-02-02T02:53:52.042Z,-0.40
2019-02-02T02:56:19.597Z,-0.40
2019-02-02T02:58:47.070Z,-0.40
2019-02-02T03:01:47.191Z,-0.40
2019-02-02T03:04:14.766Z,-0.40
2019-02-02T03:06:42.416Z,-0.40
2019-02-02T03:09:09.891Z,-0.40
2019-02-02T03:11:37.474Z,-0.40
2019-02-02T03:14:05.034Z,-0.40
2019-02-02T03:16:32.480Z,-0.40
2019-02-02T03:19:00.158Z,-0.40
2019-02-02T03:21:27.669Z,-0.40
2019-02-02T03:23:55.205Z,-0.40
2019-02-02T03:26:22.755Z,-0.40
2019-02-02T03:28:53.651Z,-0.40
2019-02-02T03:31:20.360Z,-0.40
2019-02-02T03:33:47.760Z,-0.40
2019-02-02T03:36:15.382Z,-0.40
2019-02-02T03:38:42.990Z,-0.40
2019-02-02T03:41:10.524Z,-0.40
2019-02-02T03:43:39.312Z,-0.40
2019-02-02T03:46:06.773Z,-0.50
2019-02-02T03:48:34.227Z,-0.50
2019-02-02T03:51:05.772Z,-0.50
2019-02-02T03:53:36.975Z,-0.50
2019-02-02T03:56:09.034Z,-0.50
2019-02-02T04:01:30.105Z,-0.50
2019-02-02T04:04:04.689Z,-0.50
2019-02-02T04:06:37.407Z,-0.50
2019-02-02T04:09:08.717Z,-0.50
2019-02-02T04:11:43.271Z,-0.50
2019-02-02T04:14:12.110Z,-0.50
2019-02-02T04:20:05.506Z,-0.50
2019-02-02T04:22:37.069Z,-0.50
2019-02-02T04:25:10.184Z,-0.60
2019-02-02T04:27:38.922Z,-0.60
2019-02-02T04:30:15.615Z,-0.60
2019-02-02T04:32:45.420Z,-0.60
2019-02-02T04:35:22.010Z,-0.60
2019-02-02T04:40:46.419Z,-0.60
2019-02-02T04:43:17.973Z,-0.70
2019-02-02T04:46:12.472Z,-0.70
2019-02-02T04:48:44.131Z,-0.70
2019-02-02T04:51:15.542Z,-0.70
2019-02-02T04:53:46.102Z,-0.70
2019-02-02T04:56:19.096Z,-0.80
2019-02-02T04:58:55.126Z,-0.80
2019-02-02T05:02:06.022Z,-0.80
2019-02-02T05:04:36.554Z,-0.90
2019-02-02T05:07:09.544Z,-0.90
2019-02-02T05:09:38.609Z,-0.90
2019-02-02T05:12:33.234Z,-0.90
2019-02-02T05:15:04.450Z,-0.90
2019-02-02T05:17:35.518Z,-0.90
2019-02-02T05:20:12.314Z,-0.90
2019-02-02T05:22:43.198Z,-0.90
2019-02-02T05:25:33.224Z,-0.90
2019-02-02T05:31:16.866Z,-1.00
2019-02-02T05:33:47.796Z,-1.00
2019-02-02T05:36:17.851Z,-1.00
2019-02-02T05:38:53.656Z,-1.00
2019-02-02T05:41:24.387Z,-1.00
2019-02-02T05:43:55.278Z,-1.00
2019-02-02T05:46:27.334Z,-1.00
2019-02-02T05:48:59.398Z,-1.00
2019-02-02T05:51:28.290Z,-1.00
2019-02-02T05:54:18.378Z,-1.00
2019-02-02T05:56:48.503Z,-1.00
2019-02-02T05:59:22.300Z,-1.00
2019-02-02T06:01:55.401Z,-1.00
2019-02-02T06:04:31.869Z,-1.00
2019-02-02T06:07:01.881Z,-1.00
2019-02-02T06:10:01.806Z,-1.00
2019-02-02T06:12:51.683Z,-1.00
2019-02-02T06:15:23.036Z,-1.00
2019-02-02T06:17:52.230Z,-1.00
2019-02-02T06:20:30.543Z,-1.00
2019-02-02T06:23:00.868Z,-1.00
2019-02-02T06:25:34.679Z,-1.00
2019-02-02T06:28:29.444Z,-1.00
2019-02-02T06:31:08.041Z,-1.00
2019-02-02T06:33:43.545Z,-1.00
2019-02-02T06:36:12.330Z,-1.00
2019-02-02T06:39:10.099Z,-1.00
2019-02-02T06:41:41.557Z,-1.00
2019-02-02T06:44:17.291Z,-0.90
2019-02-02T06:47:06.671Z,-0.90
2019-02-02T06:49:38.414Z,-0.90
2019-02-02T06:52:10.172Z,-0.90
2019-02-02T06:55:06.425Z,-0.90
2019-02-02T07:00:49.265Z,-0.90
2019-02-02T07:03:22.557Z,-0.90
2019-02-02T07:05:54.722Z,-0.90
2019-02-02T07:08:32.830Z,-0.90
2019-02-02T07:11:30.598Z,-0.90
2019-02-02T07:14:02.465Z,-0.90
2019-02-02T07:16:35.344Z,-0.90
2019-02-02T07:19:25.752Z,-0.80
2019-02-02T07:21:56.781Z,-0.80
2019-02-02T07:24:27.106Z,-0.80
2019-02-02T07:27:04.999Z,-0.80
2019-02-02T07:29:37.791Z,-0.80
2019-02-02T07:32:11.188Z,-0.80
2019-02-02T07:34:43.967Z,-0.80
2019-02-02T07:40:23.643Z,-0.80
2019-02-02T07:42:53.523Z,-0.70
2019-02-02T07:45:27.756Z,-0.70
2019-02-02T07:47:58.097Z,-0.70
2019-02-02T07:50:29.000Z,-0.70
2019-02-02T07:52:57.582Z,-0.70
2019-02-02T07:55:31.139Z,-0.70
2019-02-02T07:58:00.007Z,-0.70
2019-02-02T08:00:40.952Z,-0.60
2019-02-02T08:03:13.457Z,-0.60
2019-02-02T08:05:42.145Z,-0.60
2019-02-02T08:08:16.950Z,-0.60
2019-02-02T08:10:47.728Z,-0.60
2019-02-02T08:16:30.751Z,-0.60
2019-02-02T08:18:59.235Z,-0.50
2019-02-02T08:21:28.535Z,-0.40
2019-02-02T08:23:59.789Z,-0.40
2019-02-02T08:26:32.157Z,-0.40
2019-02-02T08:29:00.917Z,-0.30
2019-02-02T08:31:29.532Z,-0.30
2019-02-02T08:34:03.314Z,-0.20
2019-02-02T08:36:32.222Z,-0.20
2019-02-02T08:39:01.016Z,-0.20
2019-02-02T08:41:39.097Z,-0.10
2019-02-02T08:44:11.386Z,-0.10
2019-02-02T08:46:59.330Z,0.00
2019-02-02T08:49:28.318Z,0.00
2019-02-02T08:52:02.295Z,0.00
2019-02-02T08:54:35.724Z,0.10
2019-02-02T08:57:23.686Z,0.10
2019-02-02T08:59:53.471Z,0.20
2019-02-02T09:02:21.853Z,0.30
2019-02-02T09:04:53.302Z,0.30
2019-02-02T09:07:21.678Z,0.40
2019-02-02T09:10:11.274Z,0.40
2019-02-02T09:12:48.651Z,0.50
2019-02-02T09:15:19.796Z,0.50
2019-02-02T09:17:48.071Z,0.50
2019-02-02T09:20:16.721Z,0.60
2019-02-02T09:23:02.634Z,0.60
2019-02-02T09:25:22.301Z,0.70
2019-02-02T09:27:53.364Z,0.70
2019-02-02T09:30:40.169Z,0.80
2019-02-02T09:33:11.459Z,0.90
2019-02-02T09:35:40.507Z,0.90
2019-02-02T09:38:12.210Z,1.00
2019-02-02T09:40:41.016Z,1.00
2019-02-02T09:43:24.386Z,1.10
2019-02-02T09:45:54.703Z,1.10
2019-02-02T09:48:35.189Z,1.20
2019-02-02T09:51:06.076Z,1.30
2019-02-02T09:53:45.660Z,1.30
2019-02-02T09:56:16.180Z,1.40
2019-02-02T09:58:49.338Z,1.40
2019-02-02T10:07:27.392Z,1.60
2019-02-02T10:10:04.685Z,1.60
2019-02-02T10:12:35.820Z,1.60
2019-02-02T10:15:05.836Z,1.60
2019-02-02T10:17:36.580Z,1.70
2019-02-02T10:20:08.952Z,1.70
2019-02-02T10:22:38.758Z,1.70
2019-02-02T10:25:08.980Z,1.80
2019-02-02T10:27:41.975Z,1.80
2019-02-02T10:30:25.012Z,1.90
2019-02-02T10:32:56.145Z,1.90
2019-02-02T10:35:35.675Z,2.00
2019-02-02T10:38:07.031Z,2.00
2019-02-02T10:40:38.074Z,2.10
2019-02-02T10:46:16.712Z,2.10
2019-02-02T10:48:45.592Z,2.10
2019-02-02T10:51:14.295Z,2.10
2019-02-02T10:53:42.853Z,2.10
2019-02-02T10:56:11.379Z,2.20
2019-02-02T10:58:43.221Z,2.20
2019-02-02T11:01:12.113Z,2.20
2019-02-02T11:03:41.088Z,2.20
2019-02-02T11:06:10.278Z,2.20
2019-02-02T11:08:39.153Z,2.20
2019-02-02T11:11:13.260Z,2.30
2019-02-02T11:13:43.224Z,2.30
2019-02-02T11:16:12.839Z,2.30
2019-02-02T11:18:42.025Z,2.30
2019-02-02T11:21:11.018Z,2.40
2019-02-02T11:23:39.588Z,2.40
2019-02-02T11:26:08.404Z,2.40
2019-02-02T11:28:37.119Z,2.50
2019-02-02T11:31:06.370Z,2.50
2019-02-02T11:33:36.059Z,2.60
2019-02-02T11:36:04.954Z,2.60
2019-02-02T11:38:36.310Z,2.60
2019-02-02T11:41:07.752Z,2.60
2019-02-02T11:43:37.563Z,2.70
2019-02-02T11:46:27.890Z,2.70
2019-02-02T11:48:56.554Z,2.70
2019-02-02T11:51:25.231Z,2.70
2019-02-02T11:53:55.237Z,2.70
2019-02-02T11:56:23.742Z,2.70
2019-02-02T11:58:51.999Z,2.70
2019-02-02T12:01:23.244Z,2.70
2019-02-02T12:03:51.643Z,2.70
2019-02-02T12:06:20.412Z,2.70
2019-02-02T12:08:51.557Z,2.70
2019-02-02T12:11:22.645Z,2.70
2019-02-02T12:13:58.201Z,2.70
2019-02-02T12:16:47.104Z,2.70
2019-02-02T12:19:17.348Z,2.70
2019-02-02T12:21:55.023Z,2.70
2019-02-02T12:24:26.435Z,2.70
2019-02-02T12:26:55.935Z,2.70
2019-02-02T12:29:26.311Z,2.80
2019-02-02T12:31:54.699Z,2.80
2019-02-02T12:34:23.100Z,2.80
2019-02-02T12:36:55.561Z,2.80
2019-02-02T12:39:24.111Z,2.80
2019-02-02T12:41:53.724Z,2.80
2019-02-02T12:44:22.403Z,2.80
2019-02-02T12:46:51.113Z,2.80
2019-02-02T12:49:20.881Z,2.80
2019-02-02T12:51:49.222Z,2.80
2019-02-02T12:54:22.174Z,2.90
2019-02-02T12:56:50.454Z,2.90
2019-02-02T12:59:24.851Z,2.90
2019-02-02T13:01:53.405Z,2.90
2019-02-02T13:04:21.679Z,3.00
2019-02-02T13:09:37.900Z,3.00
2019-02-02T13:12:12.122Z,3.00
2019-02-02T13:14:40.744Z,3.00
2019-02-02T13:19:58.000Z,3.00
2019-02-02T13:22:29.061Z,3.00
2019-02-02T13:24:57.645Z,3.00
2019-02-02T13:27:27.288Z,3.00
2019-02-02T13:30:00.883Z,3.00
2019-02-02T13:32:29.568Z,3.00
2019-02-02T13:35:06.038Z,3.00
2019-02-02T13:37:39.210Z,3.00
2019-02-02T13:40:10.519Z,3.00
2019-02-02T13:42:39.164Z,3.00
2019-02-02T13:45:08.442Z,3.00
2019-02-02T13:47:56.511Z,3.00
2019-02-02T13:50:25.549Z,3.00
2019-02-02T13:52:57.564Z,3.00
2019-02-02T13:55:27.270Z,3.00
2019-02-02T13:57:56.145Z,3.00
2019-02-02T14:00:27.001Z,3.00
2019-02-02T14:03:03.182Z,3.00
2019-02-02T14:05:32.452Z,3.00
2019-02-02T14:08:01.244Z,3.00
2019-02-02T14:10:31.168Z,3.00
2019-02-02T14:13:01.799Z,3.00
2019-02-02T14:15:32.836Z,3.00
2019-02-02T14:18:04.695Z,3.00
2019-02-02T14:20:53.050Z,2.90
2019-02-02T14:23:25.196Z,2.90
2019-02-02T14:26:13.230Z,2.90
2019-02-02T14:28:50.803Z,2.90
2019-02-02T14:31:21.986Z,2.80
2019-02-02T14:33:50.885Z,2.80
2019-02-02T14:36:21.406Z,2.80
2019-02-02T14:38:50.189Z,2.80
2019-02-02T14:41:18.774Z,2.80
2019-02-02T14:43:47.339Z,2.70
2019-02-02T14:46:17.062Z,2.70
2019-02-02T14:48:51.188Z,2.70
2019-02-02T14:51:20.081Z,2.70
2019-02-02T14:53:48.893Z,2.70
2019-02-02T14:56:22.976Z,2.70
2019-02-02T14:58:51.456Z,2.70
2019-02-02T15:01:20.175Z,2.70
2019-02-02T15:03:48.674Z,2.70
2019-02-02T15:06:17.190Z,2.60
2019-02-02T15:08:47.536Z,2.60
2019-02-02T15:11:38.329Z,2.60
2019-02-02T15:14:17.355Z,2.60
2019-02-02T15:17:00.589Z,2.60
2019-02-02T15:19:29.213Z,2.60
2019-02-02T15:22:00.111Z,2.60
2019-02-02T15:24:28.700Z,2.60
2019-02-02T15:26:57.088Z,2.60
2019-02-02T15:29:25.332Z,2.50
2019-02-02T15:31:59.374Z,2.50
2019-02-02T15:34:29.990Z,2.50
2019-02-02T15:37:05.887Z,2.50
2019-02-02T15:39:44.773Z,2.50
2019-02-02T15:42:24.607Z,2.50
2019-02-02T15:45:18.233Z,2.40
2019-02-02T15:47:44.150Z,2.40
2019-02-02T15:50:23.806Z,2.40
2019-02-02T15:52:53.502Z,2.40
2019-02-02T15:55:45.433Z,2.40
2019-02-02T15:58:44.841Z,2.40
2019-02-02T16:01:17.050Z,2.30
2019-02-02T16:03:49.988Z,2.30
2019-02-02T16:06:29.137Z,2.30
2019-02-02T16:08:57.706Z,2.30
2019-02-02T16:11:29.028Z,2.30
2019-02-02T16:13:59.643Z,2.20
2019-02-02T16:16:30.786Z,2.20
2019-02-02T16:19:17.245Z,2.20
2019-02-02T16:22:13.843Z,2.20
2019-02-02T16:27:38.127Z,2.20
2019-02-02T16:30:16.869Z,2.10
2019-02-02T16:32:49.387Z,2.10
2019-02-02T16:35:22.888Z,2.10
2019-02-02T16:37:53.628Z,2.00
2019-02-02T16:40:26.511Z,2.00
2019-02-02T16:42:56.329Z,2.00
2019-02-02T16:45:27.060Z,2.00
2019-02-02T16:47:56.597Z,2.00
2019-02-02T16:50:26.279Z,1.90
2019-02-02T16:52:54.704Z,1.90
2019-02-02T16:55:25.494Z,1.90
2019-02-02T16:57:53.903Z,1.90
2019-02-02T17:00:24.328Z,1.90
2019-02-02T17:05:50.240Z,1.90
2019-02-02T17:08:45.242Z,1.90
2019-02-02T17:11:14.200Z,1.80
2019-02-02T17:13:52.467Z,1.80
2019-02-02T17:16:29.006Z,1.80
2019-02-02T17:19:02.299Z,1.80
2019-02-02T17:21:52.182Z,1.80
2019-02-02T17:24:20.946Z,1.80
2019-02-02T17:26:53.870Z,1.80
2019-02-02T17:29:27.971Z,1.70
2019-02-02T17:32:17.595Z,1.70
2019-02-02T17:34:48.240Z,1.70
2019-02-02T17:38:12.781Z,1.70
2019-02-02T17:41:05.968Z,1.70
2019-02-02T17:43:37.429Z,1.70
2019-02-02T17:46:11.832Z,1.70
2019-02-02T17:48:45.292Z,1.70
2019-02-02T17:51:18.009Z,1.70
2019-02-02T17:53:46.897Z,1.70
2019-02-02T17:56:15.532Z,1.70
2019-02-02T17:59:05.899Z,1.70
2019-02-02T18:01:41.116Z,1.70
2019-02-02T18:04:12.314Z,1.70
2019-02-02T18:06:41.460Z,1.70
2019-02-02T18:09:51.717Z,1.70
2019-02-02T18:12:42.630Z,1.60
2019-02-02T18:15:42.914Z,1.60
2019-02-02T18:18:16.502Z,1.60
2019-02-02T18:20:51.759Z,1.60
2019-02-02T18:23:24.483Z,1.60
2019-02-02T18:26:02.433Z,1.60
2019-02-02T18:28:31.275Z,1.60
2019-02-02T18:31:20.591Z,1.60
2019-02-02T18:34:08.573Z,1.50
2019-02-02T18:36:37.183Z,1.50
2019-02-02T18:39:07.387Z,1.50
2019-02-02T18:41:35.061Z,1.50
2019-02-02T18:44:02.665Z,1.50
2019-02-02T18:46:30.633Z,1.50
2019-02-02T18:48:58.474Z,1.50
2019-02-02T18:51:26.981Z,1.50
2019-02-02T18:53:54.771Z,1.50
2019-02-02T18:56:22.355Z,1.50
2019-02-02T18:58:50.262Z,1.50
2019-02-02T19:01:18.104Z,1.50
2019-02-02T19:03:45.780Z,1.40
2019-02-02T19:06:13.503Z,1.40
2019-02-02T19:08:48.820Z,1.40
2019-02-02T19:11:16.715Z,1.40
2019-02-02T19:13:44.520Z,1.40
2019-02-02T19:16:12.439Z,1.40
2019-02-02T19:18:40.363Z,1.40
2019-02-02T19:21:08.252Z,1.40
2019-02-02T19:23:36.057Z,1.30
2019-02-02T19:26:03.981Z,1.30
2019-02-02T19:28:39.535Z,1.30
2019-02-02T19:31:01.614Z,1.30
2019-02-02T19:33:29.589Z,1.30
2019-02-02T19:35:57.356Z,1.20
2019-02-02T19:38:25.210Z,1.20
2019-02-02T19:40:53.173Z,1.20
2019-02-02T19:43:21.153Z,1.30
2019-02-02T19:45:49.056Z,1.20
2019-02-02T19:48:16.575Z,1.20
2019-02-02T19:50:44.526Z,1.20
2019-02-02T19:53:12.148Z,1.20
2019-02-02T19:55:39.742Z,1.20
2019-02-02T19:58:07.261Z,1.20
2019-02-02T20:00:35.130Z,1.10
2019-02-02T20:03:03.683Z,1.10
2019-02-02T20:05:31.285Z,1.10
2019-02-02T20:07:58.935Z,1.10
2019-02-02T20:10:29.327Z,1.10
2019-02-02T20:12:59.084Z,1.10
2019-02-02T20:15:28.408Z,1.10
2019-02-02T20:18:09.922Z,1.10
2019-02-02T20:20:31.795Z,1.10
2019-02-02T20:23:01.486Z,1.10
2019-02-02T20:25:31.323Z,1.20
2019-02-02T20:28:03.124Z,1.10
2019-02-02T20:30:32.660Z,1.10
2019-02-02T20:33:03.054Z,1.20
2019-02-02T20:35:42.045Z,1.10
2019-02-02T20:38:05.118Z,1.10
2019-02-02T20:40:34.382Z,1.10
2019-02-02T20:43:02.267Z,1.10
2019-02-02T20:45:32.737Z,1.10
2019-02-02T20:48:00.848Z,1.10
2019-02-02T20:50:28.394Z,1.10
2019-02-02T20:52:56.095Z,1.10
2019-02-02T20:55:26.247Z,1.10
2019-02-02T20:57:55.226Z,1.10
2019-02-02T21:00:24.302Z,1.10
2019-02-02T21:02:52.087Z,1.00
2019-02-02T21:05:19.776Z,1.00
2019-02-02T21:07:47.369Z,1.00
2019-02-02T21:10:16.784Z,1.00
2019-02-02T21:12:44.401Z,1.00
2019-02-02T21:15:12.076Z,1.00
2019-02-02T21:17:40.042Z,1.00
2019-02-02T21:20:10.970Z,1.00
2019-02-02T21:22:38.815Z,1.00
2019-02-02T21:25:07.394Z,0.90
2019-02-02T21:27:35.198Z,0.90
2019-02-02T21:30:04.308Z,0.90
2019-02-02T21:32:33.074Z,0.90
2019-02-02T21:35:00.744Z,0.90
2019-02-02T21:37:28.370Z,0.90
2019-02-02T21:39:56.107Z,0.90
2019-02-02T21:42:23.679Z,0.90
2019-02-02T21:44:51.538Z,0.90
2019-02-02T21:47:19.053Z,0.80
2019-02-02T21:49:46.571Z,0.80
2019-02-02T21:52:14.289Z,0.80
2019-02-02T21:54:42.271Z,0.80
2019-02-02T21:57:09.891Z,0.80
2019-02-02T21:59:38.555Z,0.80
2019-02-02T22:02:06.021Z,0.80
2019-02-02T22:04:33.747Z,0.70
2019-02-02T22:07:01.307Z,0.70
2019-02-02T22:09:29.258Z,0.70
2019-02-02T22:11:56.912Z,0.70
2019-02-02T22:14:24.439Z,0.70
2019-02-02T22:16:52.042Z,0.70
2019-02-02T22:19:19.703Z,0.70
2019-02-02T22:21:47.290Z,0.70
2019-02-02T22:24:15.366Z,0.70
2019-02-02T22:26:42.940Z,0.70
2019-02-02T22:29:10.802Z,0.70
2019-02-02T22:31:38.454Z,0.70
2019-02-02T22:34:06.058Z,0.70
2019-02-02T22:36:33.778Z,0.70
2019-02-02T22:39:02.009Z,0.70
2019-02-02T22:41:31.386Z,0.70
2019-02-02T22:43:58.960Z,0.70
2019-02-02T22:46:26.675Z,0.80
2019-02-02T22:48:54.238Z,0.80
2019-02-02T22:51:21.868Z,0.80
2019-02-02T22:53:49.597Z,0.80
2019-02-02T22:56:17.156Z,0.80
2019-02-02T22:58:44.663Z,0.80
2019-02-02T23:01:27.261Z,0.70
2019-02-02T23:04:10.426Z,0.70
2019-02-02T23:07:05.174Z,0.70
2019-02-02T23:10:24.457Z,0.70
2019-02-02T23:13:20.979Z,0.70
2019-02-02T23:16:26.452Z,0.60
2019-02-02T23:18:55.082Z,0.60
2019-02-02T23:21:23.040Z,0.70
2019-02-02T23:23:50.715Z,0.70
2019-02-02T23:26:18.375Z,0.70
2019-02-02T23:28:45.979Z,0.70
2019-02-02T23:31:13.851Z,0.70
2019-02-02T23:33:41.666Z,0.70
2019-02-02T23:36:09.353Z,0.70
2019-02-02T23:38:36.970Z,0.80
2019-02-02T23:41:04.450Z,0.80
2019-02-02T23:43:32.367Z,0.80
2019-02-02T23:46:00.215Z,0.80
2019-02-02T23:48:28.144Z,0.80
2019-02-02T23:50:55.845Z,0.80
2019-02-02T23:53:23.521Z,0.80
2019-02-02T23:55:51.049Z,0.80
2019-02-02T23:58:18.630Z,0.80
